createdAt,value
2023-05-16T00:01:01.501Z,100856.69
2023-05-16T00:03:28.328Z,100853.09
2023-05-16T00:05:56.026Z,100852.28
2023-05-16T00:08:22.930Z,100862.56
2023-05-16T00:10:49.564Z,100853.03
2023-05-16T00:13:16.256Z,100860.13
2023-05-16T00:15:44.232Z,100867.28
2023-05-16T00:18:14.755Z,100858.38
2023-05-16T00:20:41.823Z,100867.88
2023-05-16T00:23:08.727Z,100862.66
2023-05-16T00:25:36.536Z,100862.63
2023-05-16T00:28:03.435Z,100865.13
2023-05-16T00:30:30.781Z,100868.66
2023-05-16T00:32:57.525Z,100866.09
2023-05-16T00:35:24.304Z,100859.38
2023-05-16T00:37:51.316Z,100864.63
2023-05-16T00:40:18.111Z,100861.91
2023-05-16T00:42:44.870Z,100857.47
2023-05-16T00:45:12.078Z,100864.66
2023-05-16T00:47:38.839Z,100865.38
2023-05-16T00:50:07.285Z,100862.75
2023-05-16T00:52:34.135Z,100870.50
2023-05-16T00:55:03.900Z,100861.75
2023-05-16T00:57:30.871Z,100861.91
2023-05-16T00:59:57.934Z,100859.28
2023-05-16T01:02:28.542Z,100853.16
2023-05-16T01:04:55.445Z,100851.56
2023-05-16T01:07:23.586Z,100859.16
2023-05-16T01:09:50.317Z,100854.19
2023-05-16T01:12:30.001Z,100859.94
2023-05-16T01:15:06.668Z,100864.97
2023-05-16T01:17:50.892Z,100862.75
2023-05-16T01:20:55.830Z,100862.19
2023-05-16T01:24:01.427Z,100864.00
2023-05-16T01:26:29.952Z,100866.44
2023-05-16T01:28:57.304Z,100864.78
2023-05-16T01:31:24.452Z,100876.22
2023-05-16T01:33:51.367Z,100876.28
2023-05-16T01:36:17.946Z,100872.94
2023-05-16T01:38:57.231Z,100876.44
2023-05-16T01:42:07.859Z,100877.38
2023-05-16T01:44:41.343Z,100880.63
2023-05-16T01:47:16.576Z,100889.69
2023-05-16T01:49:56.163Z,100893.59
2023-05-16T01:52:28.488Z,100901.38
2023-05-16T01:54:57.939Z,100908.97
2023-05-16T01:57:27.044Z,100914.03
2023-05-16T01:59:53.850Z,100914.41
2023-05-16T02:02:21.066Z,100913.03
2023-05-16T02:04:47.733Z,100911.34
2023-05-16T02:07:15.955Z,100916.69
2023-05-16T02:09:45.135Z,100921.09
2023-05-16T02:12:11.728Z,100919.41
2023-05-16T02:14:38.355Z,100919.69
2023-05-16T02:17:06.462Z,100926.38
2023-05-16T02:19:33.126Z,100925.44
2023-05-16T02:22:00.749Z,100923.03
2023-05-16T02:24:27.457Z,100925.44
2023-05-16T02:26:55.539Z,100916.72
2023-05-16T02:29:22.196Z,100922.13
2023-05-16T02:31:49.651Z,100914.31
2023-05-16T02:34:16.783Z,100935.31
2023-05-16T02:36:43.560Z,100935.19
2023-05-16T02:39:10.461Z,100933.16
2023-05-16T02:41:37.526Z,100930.09
2023-05-16T02:44:04.287Z,100942.00
2023-05-16T02:46:33.555Z,100938.41
2023-05-16T02:49:01.596Z,100955.94
2023-05-16T02:51:29.081Z,100958.16
2023-05-16T02:54:02.678Z,100959.88
2023-05-16T02:56:29.582Z,100965.84
2023-05-16T02:58:56.517Z,100964.38
2023-05-16T03:01:23.666Z,100969.47
2023-05-16T03:03:51.091Z,100977.16
2023-05-16T03:06:17.923Z,100976.00
2023-05-16T03:08:44.541Z,100967.69
2023-05-16T03:11:11.229Z,100978.75
2023-05-16T03:13:37.817Z,100979.19
2023-05-16T03:16:06.317Z,100984.56
2023-05-16T03:18:33.311Z,100980.09
2023-05-16T03:21:00.037Z,100989.84
2023-05-16T03:23:27.309Z,100988.97
2023-05-16T03:25:56.196Z,100986.72
2023-05-16T03:28:22.841Z,100994.19
2023-05-16T03:30:49.453Z,100992.94
2023-05-16T03:33:16.243Z,100999.31
2023-05-16T03:35:44.039Z,100994.97
2023-05-16T03:38:11.086Z,100992.38
2023-05-16T03:40:37.778Z,101001.00
2023-05-16T03:43:04.503Z,100995.66
2023-05-16T03:45:31.722Z,101005.59
2023-05-16T03:47:58.506Z,101005.56
2023-05-16T03:50:25.571Z,101013.59
2023-05-16T03:52:55.076Z,101016.84
2023-05-16T03:55:21.819Z,101012.72
2023-05-16T03:57:50.170Z,101013.25
2023-05-16T04:00:17.875Z,101027.00
2023-05-16T04:02:45.001Z,101026.13
2023-05-16T04:05:14.925Z,101030.75
2023-05-16T04:07:41.601Z,101038.69
2023-05-16T04:10:12.234Z,101042.06
2023-05-16T04:12:38.944Z,101048.75
2023-05-16T04:15:07.357Z,101045.97
2023-05-16T04:17:34.836Z,101049.94
2023-05-16T04:20:01.704Z,101043.97
2023-05-16T04:22:28.601Z,101048.28
2023-05-16T04:24:55.361Z,101046.59
2023-05-16T04:27:22.029Z,101061.44
2023-05-16T04:29:48.582Z,101052.00
2023-05-16T04:32:15.470Z,101060.66
2023-05-16T04:34:44.305Z,101068.22
2023-05-16T04:37:10.924Z,101068.66
2023-05-16T04:39:38.124Z,101073.78
2023-05-16T04:42:05.729Z,101074.25
2023-05-16T04:44:32.418Z,101073.66
2023-05-16T04:46:59.599Z,101081.41
2023-05-16T04:49:26.345Z,101080.28
2023-05-16T04:51:53.256Z,101093.38
2023-05-16T04:54:19.837Z,101092.09
2023-05-16T04:56:46.541Z,101091.53
2023-05-16T04:59:13.179Z,101101.84
2023-05-16T05:01:40.006Z,101108.78
2023-05-16T05:04:06.792Z,101114.63
2023-05-16T05:06:33.608Z,101116.63
2023-05-16T05:09:00.346Z,101115.38
2023-05-16T05:11:27.477Z,101122.00
2023-05-16T05:13:54.404Z,101122.34
2023-05-16T05:16:21.141Z,101122.34
2023-05-16T05:18:47.863Z,101131.38
2023-05-16T05:21:14.670Z,101127.94
2023-05-16T05:23:41.473Z,101136.13
2023-05-16T05:26:08.272Z,101137.03
2023-05-16T05:28:34.891Z,101139.22
2023-05-16T05:31:01.770Z,101136.81
2023-05-16T05:33:29.697Z,101142.78
2023-05-16T05:35:56.825Z,101148.25
2023-05-16T05:38:23.507Z,101150.91
2023-05-16T05:40:50.119Z,101150.06
2023-05-16T05:43:17.094Z,101148.25
2023-05-16T05:45:44.495Z,101161.25
2023-05-16T05:48:12.501Z,101166.47
2023-05-16T05:50:39.462Z,101148.31
2023-05-16T05:53:06.029Z,101160.28
2023-05-16T05:55:32.623Z,101154.25
2023-05-16T05:57:59.269Z,101155.84
2023-05-16T06:00:25.988Z,101159.28
2023-05-16T06:02:52.910Z,101155.44
2023-05-16T06:05:19.944Z,101161.81
2023-05-16T06:07:46.621Z,101167.41
2023-05-16T06:10:13.571Z,101159.06
2023-05-16T06:12:40.239Z,101169.88
2023-05-16T06:15:07.734Z,101174.56
2023-05-16T06:17:34.516Z,101177.25
2023-05-16T06:20:01.743Z,101179.47
2023-05-16T06:22:28.476Z,101178.09
2023-05-16T06:24:55.109Z,101186.41
2023-05-16T06:27:21.687Z,101179.63
2023-05-16T06:29:48.269Z,101186.69
2023-05-16T06:32:14.965Z,101196.31
2023-05-16T06:34:41.664Z,101195.81
2023-05-16T06:37:08.298Z,101195.81
2023-05-16T06:39:34.867Z,101193.44
2023-05-16T06:42:01.614Z,101198.94
2023-05-16T06:44:32.009Z,101199.88
2023-05-16T06:46:58.989Z,101200.47
2023-05-16T06:49:25.819Z,101196.25
2023-05-16T06:51:52.566Z,101193.25
2023-05-16T06:54:19.225Z,101203.19
2023-05-16T06:56:46.054Z,101202.41
2023-05-16T06:59:12.776Z,101202.19
2023-05-16T07:01:39.781Z,101206.53
2023-05-16T07:04:06.736Z,101211.53
2023-05-16T07:06:33.776Z,101206.31
2023-05-16T07:09:00.629Z,101209.97
2023-05-16T07:11:27.301Z,101210.44
2023-05-16T07:13:54.155Z,101212.34
2023-05-16T07:16:20.981Z,101209.00
2023-05-16T07:18:47.679Z,101222.47
2023-05-16T07:21:14.437Z,101219.34
2023-05-16T07:23:41.668Z,101218.81
2023-05-16T07:26:08.711Z,101209.69
2023-05-16T07:28:35.552Z,101219.88
2023-05-16T07:31:02.335Z,101224.13
2023-05-16T07:33:29.004Z,101222.66
2023-05-16T07:36:07.804Z,101220.56
2023-05-16T07:38:42.327Z,101226.19
2023-05-16T07:41:09.307Z,101224.44
2023-05-16T07:43:36.828Z,101227.56
2023-05-16T07:46:03.592Z,101223.00
2023-05-16T07:48:30.415Z,101222.41
2023-05-16T07:50:57.099Z,101218.00
2023-05-16T07:53:23.913Z,101221.84
2023-05-16T07:55:50.900Z,101220.47
2023-05-16T07:58:18.412Z,101231.69
2023-05-16T08:00:45.538Z,101235.84
2023-05-16T08:03:12.667Z,101224.66
2023-05-16T08:05:39.971Z,101224.44
2023-05-16T08:08:06.850Z,101221.00
2023-05-16T08:10:33.654Z,101226.97
2023-05-16T08:13:00.582Z,101235.16
2023-05-16T08:15:28.310Z,101232.22
2023-05-16T08:17:58.266Z,101231.97
2023-05-16T08:20:28.142Z,101232.94
2023-05-16T08:22:55.350Z,101238.22
2023-05-16T08:25:22.099Z,101240.50
2023-05-16T08:27:50.694Z,101240.69
2023-05-16T08:30:17.485Z,101229.31
2023-05-16T08:32:44.307Z,101234.94
2023-05-16T08:35:14.431Z,101233.69
2023-05-16T08:37:41.689Z,101234.66
2023-05-16T08:40:14.282Z,101228.84
2023-05-16T08:42:42.348Z,101235.09
2023-05-16T08:45:10.739Z,101234.97
2023-05-16T08:47:41.582Z,101240.81
2023-05-16T08:50:14.353Z,101236.06
2023-05-16T08:52:43.599Z,101237.72
2023-05-16T08:55:13.320Z,101233.66
2023-05-16T08:57:41.045Z,101241.53
2023-05-16T09:00:14.464Z,101242.59
2023-05-16T09:02:43.421Z,101232.28
2023-05-16T09:05:14.347Z,101235.88
2023-05-16T09:07:42.485Z,101243.00
2023-05-16T09:10:11.986Z,101245.63
2023-05-16T09:12:40.971Z,101251.81
2023-05-16T09:15:09.064Z,101233.19
2023-05-16T09:17:44.177Z,101236.03
2023-05-16T09:20:19.421Z,101234.72
2023-05-16T09:22:56.970Z,101236.63
2023-05-16T09:25:30.228Z,101229.69
2023-05-16T09:28:01.336Z,101243.03
2023-05-16T09:30:31.502Z,101235.84
2023-05-16T09:32:59.209Z,101233.13
2023-05-16T09:35:43.129Z,101229.56
2023-05-16T09:38:16.709Z,101228.69
2023-05-16T09:40:44.481Z,101232.69
2023-05-16T09:43:16.257Z,101243.94
2023-05-16T09:45:47.599Z,101223.19
2023-05-16T09:48:15.941Z,101228.91
2023-05-16T09:50:49.915Z,101217.72
2023-05-16T09:53:16.816Z,101219.31
2023-05-16T09:55:43.736Z,101214.06
2023-05-16T09:58:17.932Z,101218.53
2023-05-16T10:00:45.371Z,101221.28
2023-05-16T10:03:12.607Z,101224.53
2023-05-16T10:05:39.710Z,101223.84
2023-05-16T10:08:06.782Z,101229.34
2023-05-16T10:10:38.554Z,101227.81
2023-05-16T10:13:07.277Z,101229.31
2023-05-16T10:15:37.906Z,101225.59
2023-05-16T10:18:11.836Z,101223.75
2023-05-16T10:20:41.643Z,101222.94
2023-05-16T10:23:09.516Z,101223.69
2023-05-16T10:25:41.803Z,101221.97
2023-05-16T10:28:09.465Z,101219.13
2023-05-16T10:30:37.500Z,101220.81
2023-05-16T10:33:04.709Z,101221.94
2023-05-16T10:35:33.037Z,101218.13
2023-05-16T10:38:01.148Z,101207.88
2023-05-16T10:40:29.295Z,101222.47
2023-05-16T10:43:07.287Z,101217.66
2023-05-16T10:45:34.902Z,101215.75
2023-05-16T10:48:07.020Z,101215.63
2023-05-16T10:50:46.372Z,101221.88
2023-05-16T10:53:19.292Z,101215.69
2023-05-16T10:55:51.360Z,101216.69
2023-05-16T10:58:38.525Z,101225.38
2023-05-16T11:01:36.287Z,101214.28
2023-05-16T11:04:07.478Z,101219.63
2023-05-16T11:06:43.497Z,101211.97
2023-05-16T11:09:13.759Z,101216.97
2023-05-16T11:11:40.690Z,101217.28
2023-05-16T11:14:08.165Z,101220.78
2023-05-16T11:16:36.038Z,101220.72
2023-05-16T11:19:09.254Z,101222.34
2023-05-16T11:22:24.016Z,101222.50
2023-05-16T11:24:53.747Z,101213.78
2023-05-16T11:27:27.863Z,101210.25
2023-05-16T11:30:01.871Z,101219.84
2023-05-16T11:32:31.285Z,101222.47
2023-05-16T11:34:58.495Z,101220.75
2023-05-16T11:37:25.246Z,101210.25
2023-05-16T11:39:52.019Z,101221.44
2023-05-16T11:42:18.759Z,101217.94
2023-05-16T11:44:45.877Z,101212.81
2023-05-16T11:47:12.845Z,101227.50
2023-05-16T11:49:39.700Z,101225.16
2023-05-16T11:52:09.544Z,101221.69
2023-05-16T11:54:36.547Z,101215.59
2023-05-16T11:57:03.330Z,101205.97
2023-05-16T11:59:30.087Z,101223.47
2023-05-16T12:01:56.727Z,101211.22
2023-05-16T12:04:24.471Z,101206.84
2023-05-16T12:06:59.908Z,101217.31
2023-05-16T12:09:26.682Z,101216.44
2023-05-16T12:11:53.420Z,101213.84
2023-05-16T12:14:20.507Z,101212.06
2023-05-16T12:16:52.126Z,101215.56
2023-05-16T12:19:19.421Z,101219.91
2023-05-16T12:21:46.221Z,101215.56
2023-05-16T12:24:13.075Z,101225.16
2023-05-16T12:26:41.307Z,101220.81
2023-05-16T12:29:08.368Z,101225.19
2023-05-16T12:31:40.909Z,101221.59
2023-05-16T12:34:19.286Z,101212.09
2023-05-16T12:36:51.634Z,101211.81
2023-05-16T12:39:18.265Z,101204.91
2023-05-16T12:41:44.885Z,101228.66
2023-05-16T12:44:13.498Z,101222.53
2023-05-16T12:46:51.979Z,101223.41
2023-05-16T12:49:22.678Z,101218.16
2023-05-16T12:51:58.086Z,101223.16
2023-05-16T12:54:25.493Z,101215.53
2023-05-16T12:56:52.210Z,101215.59
2023-05-16T12:59:20.271Z,101218.91
2023-05-16T13:01:47.125Z,101219.03
2023-05-16T13:04:19.474Z,101215.50
2023-05-16T13:06:58.685Z,101228.69
2023-05-16T13:09:29.902Z,101233.69
2023-05-16T13:11:59.652Z,101232.97
2023-05-16T13:14:27.018Z,101231.19
2023-05-16T13:16:53.638Z,101220.72
2023-05-16T13:19:21.498Z,101224.16
2023-05-16T13:21:48.279Z,101228.69
2023-05-16T13:24:14.937Z,101231.31
2023-05-16T13:26:41.774Z,101227.81
2023-05-16T13:29:11.449Z,101229.53
2023-05-16T13:31:38.125Z,101239.22
2023-05-16T13:34:04.734Z,101231.31
2023-05-16T13:36:41.593Z,101223.47
2023-05-16T13:39:18.573Z,101233.09
2023-05-16T13:41:47.297Z,101236.53
2023-05-16T13:44:15.523Z,101232.19
2023-05-16T13:46:42.366Z,101239.19
2023-05-16T13:49:08.967Z,101238.25
2023-05-16T13:51:35.857Z,101245.25
2023-05-16T13:54:02.523Z,101235.63
2023-05-16T13:56:29.198Z,101241.63
2023-05-16T13:59:03.783Z,101238.31
2023-05-16T14:01:33.635Z,101239.19
2023-05-16T14:04:00.374Z,101242.72
2023-05-16T14:06:27.024Z,101250.53
2023-05-16T14:08:53.801Z,101255.72
2023-05-16T14:11:23.151Z,101251.13
2023-05-16T14:13:49.800Z,101261.69
2023-05-16T14:16:16.433Z,101259.78
2023-05-16T14:18:43.166Z,101257.16
2023-05-16T14:21:10.267Z,101260.75
2023-05-16T14:23:37.097Z,101256.25
2023-05-16T14:26:06.945Z,101269.13
2023-05-16T14:28:34.359Z,101267.69
2023-05-16T14:31:02.506Z,101262.72
2023-05-16T14:33:29.171Z,101258.44
2023-05-16T14:35:56.766Z,101255.81
2023-05-16T14:38:23.366Z,101254.94
2023-05-16T14:40:50.128Z,101255.75
2023-05-16T14:43:17.381Z,101247.06
2023-05-16T14:45:44.055Z,101252.28
2023-05-16T14:48:10.830Z,101253.94
2023-05-16T14:50:37.633Z,101256.63
2023-05-16T14:53:04.457Z,101260.00
2023-05-16T14:55:31.665Z,101260.19
2023-05-16T14:58:00.030Z,101258.41
2023-05-16T15:00:27.850Z,101260.16
2023-05-16T15:02:55.443Z,101266.16
2023-05-16T15:05:22.755Z,101263.41
2023-05-16T15:07:50.080Z,101260.06
2023-05-16T15:10:17.334Z,101263.50
2023-05-16T15:12:43.974Z,101267.91
2023-05-16T15:15:12.265Z,101284.69
2023-05-16T15:17:42.592Z,101285.50
2023-05-16T15:20:13.214Z,101282.88
2023-05-16T15:22:41.101Z,101286.41
2023-05-16T15:25:08.978Z,101277.72
2023-05-16T15:27:35.740Z,101282.94
2023-05-16T15:30:02.741Z,101285.47
2023-05-16T15:32:30.067Z,101284.53
2023-05-16T15:34:57.857Z,101289.75
2023-05-16T15:37:24.592Z,101291.56
2023-05-16T15:39:51.344Z,101287.19
2023-05-16T15:42:20.093Z,101288.06
2023-05-16T15:44:47.196Z,101291.56
2023-05-16T15:47:14.045Z,101292.41
2023-05-16T15:49:41.612Z,101289.72
2023-05-16T15:52:08.773Z,101292.34
2023-05-16T15:54:36.370Z,101305.44
2023-05-16T15:57:03.189Z,101307.13
2023-05-16T15:59:29.897Z,101307.88
2023-05-16T16:01:56.637Z,101302.63
2023-05-16T16:04:23.713Z,101300.88
2023-05-16T16:06:50.681Z,101311.31
2023-05-16T16:09:17.604Z,101312.31
2023-05-16T16:11:44.347Z,101315.66
2023-05-16T16:14:11.251Z,101316.88
2023-05-16T16:16:40.870Z,101317.75
2023-05-16T16:19:08.531Z,101313.41
2023-05-16T16:21:35.837Z,101316.84
2023-05-16T16:24:02.549Z,101316.78
2023-05-16T16:26:29.269Z,101315.78
2023-05-16T16:28:55.920Z,101311.41
2023-05-16T16:31:22.715Z,101322.06
2023-05-16T16:33:49.480Z,101314.84
2023-05-16T16:36:17.291Z,101320.06
2023-05-16T16:38:44.126Z,101319.09
2023-05-16T16:41:11.335Z,101323.41
2023-05-16T16:43:41.015Z,101320.94
2023-05-16T16:46:07.899Z,101320.16
2023-05-16T16:48:35.052Z,101325.22
2023-05-16T16:51:02.802Z,101332.91
2023-05-16T16:53:30.474Z,101332.00
2023-05-16T16:55:57.142Z,101340.72
2023-05-16T16:58:23.875Z,101343.63
2023-05-16T17:00:50.614Z,101345.50
2023-05-16T17:03:18.481Z,101341.16
2023-05-16T17:05:45.442Z,101353.22
2023-05-16T17:08:12.307Z,101356.66
2023-05-16T17:10:39.437Z,101359.34
2023-05-16T17:13:10.240Z,101363.06
2023-05-16T17:15:37.677Z,101371.69
2023-05-16T17:18:07.477Z,101372.28
2023-05-16T17:20:35.164Z,101372.19
2023-05-16T17:23:02.932Z,101366.78
2023-05-16T17:25:30.202Z,101381.78
2023-05-16T17:27:57.130Z,101385.34
2023-05-16T17:30:23.722Z,101384.59
2023-05-16T17:32:50.400Z,101390.22
2023-05-16T17:35:17.184Z,101386.84
2023-05-16T17:37:44.269Z,101389.50
2023-05-16T17:40:16.660Z,101379.59
2023-05-16T17:42:44.520Z,101393.50
2023-05-16T17:45:13.190Z,101392.00
2023-05-16T17:47:40.591Z,101392.00
2023-05-16T17:50:09.944Z,101399.97
2023-05-16T17:52:39.398Z,101400.03
2023-05-16T17:55:10.897Z,101402.56
2023-05-16T17:57:37.765Z,101407.38
2023-05-16T18:00:05.854Z,101402.78
2023-05-16T18:02:32.927Z,101412.31
2023-05-16T18:04:59.832Z,101403.44
2023-05-16T18:07:27.262Z,101408.41
2023-05-16T18:09:54.455Z,101411.94
2023-05-16T18:12:21.361Z,101413.44
2023-05-16T18:14:48.163Z,101417.34
2023-05-16T18:17:14.971Z,101416.97
2023-05-16T18:19:41.796Z,101425.94
2023-05-16T18:22:08.896Z,101416.44
2023-05-16T18:24:35.841Z,101425.59
2023-05-16T18:27:03.263Z,101415.47
2023-05-16T18:29:30.323Z,101424.06
2023-05-16T18:31:57.832Z,101431.16
2023-05-16T18:34:24.574Z,101429.88
2023-05-16T18:36:51.287Z,101440.78
2023-05-16T18:39:18.981Z,101439.28
2023-05-16T18:41:48.313Z,101444.75
2023-05-16T18:44:17.979Z,101437.84
2023-05-16T18:46:46.495Z,101447.91
2023-05-16T18:49:14.476Z,101442.16
2023-05-16T18:51:41.657Z,101440.94
2023-05-16T18:54:08.398Z,101446.41
2023-05-16T18:56:35.459Z,101450.88
2023-05-16T18:59:02.322Z,101457.72
2023-05-16T19:01:29.063Z,101458.59
2023-05-16T19:03:56.128Z,101457.94
2023-05-16T19:06:23.202Z,101455.94
2023-05-16T19:08:49.917Z,101463.34
2023-05-16T19:11:17.860Z,101464.50
2023-05-16T19:13:45.332Z,101468.09
2023-05-16T19:16:12.046Z,101475.00
2023-05-16T19:18:39.117Z,101474.00
2023-05-16T19:21:07.764Z,101471.53
2023-05-16T19:23:34.434Z,101483.09
2023-05-16T19:26:01.274Z,101490.00
2023-05-16T19:28:27.940Z,101484.78
2023-05-16T19:30:54.602Z,101484.13
2023-05-16T19:33:21.749Z,101496.09
2023-05-16T19:35:51.363Z,101501.25
2023-05-16T19:38:23.825Z,101497.63
2023-05-16T19:40:52.478Z,101495.47
2023-05-16T19:43:19.352Z,101504.28
2023-05-16T19:45:46.087Z,101500.22
2023-05-16T19:48:12.808Z,101504.53
2023-05-16T19:50:39.847Z,101508.63
2023-05-16T19:53:06.558Z,101510.66
2023-05-16T19:55:35.159Z,101503.59
2023-05-16T19:58:02.578Z,101496.25
2023-05-16T20:00:29.393Z,101505.72
2023-05-16T20:02:56.124Z,101506.28
2023-05-16T20:05:23.432Z,101509.09
2023-05-16T20:07:50.507Z,101519.19
2023-05-16T20:10:17.893Z,101517.97
2023-05-16T20:12:45.761Z,101504.06
2023-05-16T20:15:12.734Z,101506.78
2023-05-16T20:17:40.523Z,101506.16
2023-05-16T20:20:09.441Z,101500.19
2023-05-16T20:22:41.380Z,101495.88
2023-05-16T20:25:09.742Z,101498.53
2023-05-16T20:27:37.787Z,101488.28
2023-05-16T20:30:06.555Z,101505.00
2023-05-16T20:32:33.535Z,101509.94
2023-05-16T20:35:01.267Z,101500.41
2023-05-16T20:37:27.980Z,101504.19
2023-05-16T20:39:54.692Z,101508.53
2023-05-16T20:42:21.777Z,101513.50
2023-05-16T20:44:48.598Z,101510.06
2023-05-16T20:47:16.800Z,101518.09
2023-05-16T20:49:43.725Z,101521.69
2023-05-16T20:52:10.424Z,101516.97
2023-05-16T20:54:37.086Z,101516.81
2023-05-16T20:57:04.136Z,101512.50
2023-05-16T20:59:30.741Z,101513.34
2023-05-16T21:01:57.538Z,101520.25
2023-05-16T21:04:24.390Z,101522.94
2023-05-16T21:06:51.438Z,101532.06
2023-05-16T21:09:18.042Z,101521.97
2023-05-16T21:11:44.705Z,101531.38
2023-05-16T21:14:11.441Z,101525.03
2023-05-16T21:16:38.176Z,101520.56
2023-05-16T21:19:05.097Z,101520.25
2023-05-16T21:21:32.228Z,101523.19
2023-05-16T21:23:58.945Z,101524.00
2023-05-16T21:26:26.078Z,101525.50
2023-05-16T21:28:55.340Z,101517.59
2023-05-16T21:31:23.082Z,101517.91
2023-05-16T21:33:52.060Z,101518.63
2023-05-16T21:36:22.859Z,101525.47
2023-05-16T21:38:49.481Z,101522.06
2023-05-16T21:41:18.056Z,101524.69
2023-05-16T21:43:44.827Z,101517.41
2023-05-16T21:46:11.556Z,101515.94
2023-05-16T21:48:38.326Z,101523.19
2023-05-16T21:51:05.068Z,101523.06
2023-05-16T21:53:31.747Z,101518.56
2023-05-16T21:55:59.677Z,101523.16
2023-05-16T21:58:26.264Z,101524.97
2023-05-16T22:00:52.879Z,101521.38
2023-05-16T22:03:21.117Z,101531.53
2023-05-16T22:05:47.941Z,101536.00
2023-05-16T22:08:14.710Z,101524.84
2023-05-16T22:10:41.687Z,101527.97
2023-05-16T22:13:08.561Z,101534.72
2023-05-16T22:15:35.214Z,101530.94
2023-05-16T22:18:02.399Z,101528.09
2023-05-16T22:20:29.720Z,101523.59
2023-05-16T22:22:56.805Z,101527.16
2023-05-16T22:25:23.960Z,101522.06
2023-05-16T22:27:50.610Z,101528.00
2023-05-16T22:30:17.695Z,101530.78
2023-05-16T22:32:46.754Z,101536.00
2023-05-16T22:35:14.126Z,101539.31
2023-05-16T22:37:40.836Z,101543.28
2023-05-16T22:40:08.695Z,101541.19
2023-05-16T22:42:37.255Z,101533.47
2023-05-16T22:45:04.191Z,101547.22
2023-05-16T22:47:30.943Z,101534.88
2023-05-16T22:49:57.660Z,101540.28
2023-05-16T22:52:24.437Z,101538.69
2023-05-16T22:54:51.146Z,101539.22
2023-05-16T22:57:17.910Z,101536.09
2023-05-16T22:59:44.750Z,101534.31
2023-05-16T23:02:11.427Z,101535.25
2023-05-16T23:04:38.258Z,101533.63
2023-05-16T23:07:05.570Z,101546.47
2023-05-16T23:09:32.235Z,101540.34
2023-05-16T23:11:59.168Z,101536.25
2023-05-16T23:14:26.285Z,101538.97
2023-05-16T23:16:53.009Z,101541.28
2023-05-16T23:19:19.797Z,101548.41
2023-05-16T23:21:46.779Z,101544.53
2023-05-16T23:24:13.510Z,101549.56
2023-05-16T23:26:40.208Z,101548.94
2023-05-16T23:29:07.685Z,101544.97
2023-05-16T23:31:34.347Z,101542.19
2023-05-16T23:34:01.124Z,101542.59
2023-05-16T23:36:27.927Z,101546.75
2023-05-16T23:38:54.693Z,101547.22
2023-05-16T23:41:21.453Z,101552.72
2023-05-16T23:43:48.500Z,101559.66
2023-05-16T23:46:15.363Z,101549.63
2023-05-16T23:48:42.274Z,101557.56
2023-05-16T23:51:18.228Z,101555.63
2023-05-16T23:53:44.880Z,101553.25
2023-05-16T23:56:11.691Z,101562.06
2023-05-16T23:58:38.416Z,101564.13
